sensor_id;sensor_type;location;lat;lon;timestamp;P1;durP1;ratioP1;P2;durP2;ratioP2
19794;SDS011;10057;59.402;17.866;2022-09-09T00:03:44;4.07;;;1.00;;
19794;SDS011;10057;59.402;17.866;2022-09-09T00:09:15;1.97;;;0.93;;
19794;SDS011;10057;59.402;17.866;2022-09-09T00:12:06;3.13;;;0.87;;
19794;SDS011;10057;59.402;17.866;2022-09-09T00:14:54;2.63;;;0.80;;
19794;SDS011;10057;59.402;17.866;2022-09-09T00:23:14;2.70;;;0.83;;
19794;SDS011;10057;59.402;17.866;2022-09-09T00:26:04;2.03;;;1.00;;
19794;SDS011;10057;59.402;17.866;2022-09-09T00:29:20;2.07;;;1.00;;
19794;SDS011;10057;59.402;17.866;2022-09-09T00:31:36;2.77;;;0.80;;
19794;SDS011;10057;59.402;17.866;2022-09-09T00:34:19;2.70;;;0.80;;
19794;SDS011;10057;59.402;17.866;2022-09-09T00:36:52;3.43;;;0.90;;
19794;SDS011;10057;59.402;17.866;2022-09-09T00:42:25;2.90;;;0.70;;
19794;SDS011;10057;59.402;17.866;2022-09-09T00:47:49;1.27;;;0.80;;
19794;SDS011;10057;59.402;17.866;2022-09-09T00:50:22;0.80;;;0.60;;
19794;SDS011;10057;59.402;17.866;2022-09-09T00:58:11;2.50;;;0.80;;
19794;SDS011;10057;59.402;17.866;2022-09-09T01:00:45;2.10;;;0.70;;
19794;SDS011;10057;59.402;17.866;2022-09-09T01:03:21;1.50;;;0.50;;
19794;SDS011;10057;59.402;17.866;2022-09-09T01:17:19;1.13;;;0.50;;
19794;SDS011;10057;59.402;17.866;2022-09-09T01:28:57;1.23;;;0.80;;
19794;SDS011;10057;59.402;17.866;2022-09-09T01:31:32;1.27;;;0.80;;
19794;SDS011;10057;59.402;17.866;2022-09-09T01:34:13;0.83;;;0.60;;
19794;SDS011;10057;59.402;17.866;2022-09-09T01:36:46;1.30;;;0.60;;
19794;SDS011;10057;59.402;17.866;2022-09-09T01:39:25;2.23;;;0.70;;
19794;SDS011;10057;59.402;17.866;2022-09-09T01:41:53;1.67;;;0.80;;
19794;SDS011;10057;59.402;17.866;2022-09-09T01:44:21;2.53;;;0.60;;
19794;SDS011;10057;59.402;17.866;2022-09-09T01:46:48;1.10;;;0.40;;
19794;SDS011;10057;59.402;17.866;2022-09-09T01:49:15;0.77;;;0.60;;
19794;SDS011;10057;59.402;17.866;2022-09-09T01:51:42;3.10;;;0.60;;
19794;SDS011;10057;59.402;17.866;2022-09-09T01:54:12;1.90;;;0.50;;
19794;SDS011;10057;59.402;17.866;2022-09-09T02:02:32;0.60;;;0.50;;
19794;SDS011;10057;59.402;17.866;2022-09-09T02:05:14;0.63;;;0.47;;
19794;SDS011;10057;59.402;17.866;2022-09-09T02:08:03;0.80;;;0.50;;
19794;SDS011;10057;59.402;17.866;2022-09-09T02:10:45;2.03;;;0.50;;
19794;SDS011;10057;59.402;17.866;2022-09-09T02:13:21;0.40;;;0.30;;
19794;SDS011;10057;59.402;17.866;2022-09-09T02:18:35;2.27;;;0.47;;
19794;SDS011;10057;59.402;17.866;2022-09-09T02:21:02;0.60;;;0.50;;
19794;SDS011;10057;59.402;17.866;2022-09-09T02:23:29;0.90;;;0.40;;
19794;SDS011;10057;59.402;17.866;2022-09-09T02:25:58;0.53;;;0.50;;
19794;SDS011;10057;59.402;17.866;2022-09-09T02:28:26;0.60;;;0.47;;
19794;SDS011;10057;59.402;17.866;2022-09-09T02:30:56;2.03;;;0.50;;
19794;SDS011;10057;59.402;17.866;2022-09-09T02:33:24;3.40;;;0.50;;
19794;SDS011;10057;59.402;17.866;2022-09-09T02:35:52;0.90;;;0.40;;
19794;SDS011;10057;59.402;17.866;2022-09-09T02:38:23;0.53;;;0.33;;
19794;SDS011;10057;59.402;17.866;2022-09-09T02:40:54;1.37;;;0.60;;
19794;SDS011;10057;59.402;17.866;2022-09-09T02:43:21;0.73;;;0.40;;
19794;SDS011;10057;59.402;17.866;2022-09-09T02:45:53;0.90;;;0.40;;
19794;SDS011;10057;59.402;17.866;2022-09-09T02:51:18;1.53;;;0.30;;
19794;SDS011;10057;59.402;17.866;2022-09-09T02:56:38;0.97;;;0.40;;
19794;SDS011;10057;59.402;17.866;2022-09-09T02:59:08;1.80;;;0.47;;
19794;SDS011;10057;59.402;17.866;2022-09-09T03:01:34;0.90;;;0.50;;
19794;SDS011;10057;59.402;17.866;2022-09-09T03:04:02;2.87;;;0.40;;
19794;SDS011;10057;59.402;17.866;2022-09-09T03:06:31;1.17;;;0.43;;
19794;SDS011;10057;59.402;17.866;2022-09-09T03:08:58;0.40;;;0.40;;
19794;SDS011;10057;59.402;17.866;2022-09-09T03:11:26;2.37;;;0.50;;
19794;SDS011;10057;59.402;17.866;2022-09-09T03:13:54;1.57;;;0.43;;
19794;SDS011;10057;59.402;17.866;2022-09-09T03:16:22;1.33;;;0.60;;
19794;SDS011;10057;59.402;17.866;2022-09-09T03:18:50;2.47;;;0.63;;
19794;SDS011;10057;59.402;17.866;2022-09-09T03:21:17;0.40;;;0.33;;
19794;SDS011;10057;59.402;17.866;2022-09-09T03:23:43;0.90;;;0.50;;
19794;SDS011;10057;59.402;17.866;2022-09-09T03:26:17;0.50;;;0.40;;
19794;SDS011;10057;59.402;17.866;2022-09-09T03:28:43;0.70;;;0.50;;
19794;SDS011;10057;59.402;17.866;2022-09-09T03:31:11;0.70;;;0.40;;
19794;SDS011;10057;59.402;17.866;2022-09-09T03:33:39;3.40;;;0.50;;
19794;SDS011;10057;59.402;17.866;2022-09-09T03:36:07;1.13;;;0.47;;
19794;SDS011;10057;59.402;17.866;2022-09-09T03:38:34;0.90;;;0.50;;
19794;SDS011;10057;59.402;17.866;2022-09-09T03:41:01;0.53;;;0.40;;
19794;SDS011;10057;59.402;17.866;2022-09-09T03:43:28;1.10;;;0.50;;
19794;SDS011;10057;59.402;17.866;2022-09-09T03:45:55;0.90;;;0.40;;
19794;SDS011;10057;59.402;17.866;2022-09-09T03:48:26;1.30;;;0.40;;
19794;SDS011;10057;59.402;17.866;2022-09-09T03:50:54;1.80;;;0.53;;
19794;SDS011;10057;59.402;17.866;2022-09-09T03:53:22;0.40;;;0.30;;
19794;SDS011;10057;59.402;17.866;2022-09-09T03:55:52;3.50;;;0.50;;
19794;SDS011;10057;59.402;17.866;2022-09-09T03:58:26;1.23;;;0.57;;
19794;SDS011;10057;59.402;17.866;2022-09-09T04:00:57;0.50;;;0.40;;
19794;SDS011;10057;59.402;17.866;2022-09-09T04:03:25;1.67;;;0.57;;
19794;SDS011;10057;59.402;17.866;2022-09-09T04:05:54;0.90;;;0.40;;
19794;SDS011;10057;59.402;17.866;2022-09-09T04:08:22;2.30;;;0.60;;
19794;SDS011;10057;59.402;17.866;2022-09-09T04:10:51;1.97;;;0.60;;
19794;SDS011;10057;59.402;17.866;2022-09-09T04:13:19;2.90;;;0.60;;
19794;SDS011;10057;59.402;17.866;2022-09-09T04:15:56;1.23;;;0.60;;
19794;SDS011;10057;59.402;17.866;2022-09-09T04:18:25;2.03;;;0.50;;
19794;SDS011;10057;59.402;17.866;2022-09-09T04:20:54;1.57;;;0.57;;
19794;SDS011;10057;59.402;17.866;2022-09-09T04:23:23;3.70;;;0.93;;
19794;SDS011;10057;59.402;17.866;2022-09-09T04:25:52;2.80;;;0.70;;
19794;SDS011;10057;59.402;17.866;2022-09-09T04:28:20;3.93;;;0.60;;
19794;SDS011;10057;59.402;17.866;2022-09-09T04:30:48;3.47;;;0.70;;
19794;SDS011;10057;59.402;17.866;2022-09-09T04:33:15;2.60;;;0.67;;
19794;SDS011;10057;59.402;17.866;2022-09-09T04:35:44;1.40;;;0.57;;
19794;SDS011;10057;59.402;17.866;2022-09-09T04:38:12;2.13;;;0.87;;
19794;SDS011;10057;59.402;17.866;2022-09-09T04:40:38;1.93;;;0.70;;
19794;SDS011;10057;59.402;17.866;2022-09-09T04:43:09;0.97;;;0.60;;
19794;SDS011;10057;59.402;17.866;2022-09-09T04:45:40;1.07;;;0.70;;
19794;SDS011;10057;59.402;17.866;2022-09-09T04:48:07;1.17;;;0.50;;
19794;SDS011;10057;59.402;17.866;2022-09-09T04:50:36;2.10;;;0.70;;
19794;SDS011;10057;59.402;17.866;2022-09-09T04:53:03;4.70;;;0.80;;
19794;SDS011;10057;59.402;17.866;2022-09-09T04:55:31;2.47;;;0.80;;
19794;SDS011;10057;59.402;17.866;2022-09-09T04:58:03;2.87;;;0.73;;
19794;SDS011;10057;59.402;17.866;2022-09-09T05:00:34;3.93;;;0.40;;
19794;SDS011;10057;59.402;17.866;2022-09-09T05:03:03;1.83;;;0.70;;
19794;SDS011;10057;59.402;17.866;2022-09-09T05:05:30;1.23;;;0.60;;
19794;SDS011;10057;59.402;17.866;2022-09-09T05:08:01;1.87;;;0.60;;
19794;SDS011;10057;59.402;17.866;2022-09-09T05:10:36;4.53;;;0.73;;
19794;SDS011;10057;59.402;17.866;2022-09-09T05:13:06;3.60;;;0.80;;
19794;SDS011;10057;59.402;17.866;2022-09-09T05:15:33;3.23;;;0.70;;
19794;SDS011;10057;59.402;17.866;2022-09-09T05:18:00;4.57;;;0.87;;
19794;SDS011;10057;59.402;17.866;2022-09-09T05:20:28;7.70;;;0.80;;
19794;SDS011;10057;59.402;17.866;2022-09-09T05:22:56;3.80;;;0.80;;
19794;SDS011;10057;59.402;17.866;2022-09-09T05:25:32;2.50;;;0.70;;
19794;SDS011;10057;59.402;17.866;2022-09-09T05:27:58;5.27;;;0.60;;
19794;SDS011;10057;59.402;17.866;2022-09-09T05:30:25;2.20;;;0.70;;
19794;SDS011;10057;59.402;17.866;2022-09-09T05:32:55;4.03;;;0.87;;
19794;SDS011;10057;59.402;17.866;2022-09-09T05:35:28;2.37;;;0.70;;
19794;SDS011;10057;59.402;17.866;2022-09-09T05:37:58;3.47;;;0.60;;
19794;SDS011;10057;59.402;17.866;2022-09-09T05:40:25;5.40;;;0.80;;
19794;SDS011;10057;59.402;17.866;2022-09-09T05:42:52;4.57;;;0.73;;
19794;SDS011;10057;59.402;17.866;2022-09-09T05:45:19;3.93;;;0.43;;
19794;SDS011;10057;59.402;17.866;2022-09-09T05:47:50;2.00;;;0.40;;
19794;SDS011;10057;59.402;17.866;2022-09-09T05:50:19;7.83;;;0.60;;
19794;SDS011;10057;59.402;17.866;2022-09-09T05:52:48;5.27;;;0.50;;
19794;SDS011;10057;59.402;17.866;2022-09-09T05:55:16;1.60;;;0.50;;
19794;SDS011;10057;59.402;17.866;2022-09-09T05:57:47;6.50;;;0.60;;
19794;SDS011;10057;59.402;17.866;2022-09-09T06:00:18;2.57;;;0.60;;
19794;SDS011;10057;59.402;17.866;2022-09-09T06:02:50;4.73;;;0.50;;
19794;SDS011;10057;59.402;17.866;2022-09-09T06:05:19;4.57;;;0.30;;
19794;SDS011;10057;59.402;17.866;2022-09-09T06:07:45;2.47;;;0.50;;
19794;SDS011;10057;59.402;17.866;2022-09-09T06:10:12;2.67;;;0.60;;
19794;SDS011;10057;59.402;17.866;2022-09-09T06:12:42;3.13;;;0.50;;
19794;SDS011;10057;59.402;17.866;2022-09-09T06:15:12;3.13;;;0.37;;
19794;SDS011;10057;59.402;17.866;2022-09-09T06:17:39;0.67;;;0.30;;
19794;SDS011;10057;59.402;17.866;2022-09-09T06:20:10;5.27;;;0.50;;
19794;SDS011;10057;59.402;17.866;2022-09-09T06:22:39;1.77;;;0.40;;
19794;SDS011;10057;59.402;17.866;2022-09-09T06:25:08;0.97;;;0.30;;
19794;SDS011;10057;59.402;17.866;2022-09-09T06:27:35;5.70;;;0.37;;
19794;SDS011;10057;59.402;17.866;2022-09-09T06:30:05;2.67;;;0.43;;
19794;SDS011;10057;59.402;17.866;2022-09-09T06:32:35;0.67;;;0.30;;
19794;SDS011;10057;59.402;17.866;2022-09-09T06:35:04;2.40;;;0.40;;
19794;SDS011;10057;59.402;17.866;2022-09-09T06:37:31;1.07;;;0.40;;
19794;SDS011;10057;59.402;17.866;2022-09-09T06:40:00;2.50;;;0.20;;
19794;SDS011;10057;59.402;17.866;2022-09-09T06:42:27;0.37;;;0.30;;
19794;SDS011;10057;59.402;17.866;2022-09-09T06:44:54;6.03;;;0.50;;
19794;SDS011;10057;59.402;17.866;2022-09-09T06:47:23;2.10;;;0.30;;
19794;SDS011;10057;59.402;17.866;2022-09-09T06:49:53;1.60;;;0.40;;
19794;SDS011;10057;59.402;17.866;2022-09-09T06:52:19;1.63;;;0.20;;
19794;SDS011;10057;59.402;17.866;2022-09-09T06:54:48;0.70;;;0.40;;
19794;SDS011;10057;59.402;17.866;2022-09-09T06:57:16;1.30;;;0.27;;
19794;SDS011;10057;59.402;17.866;2022-09-09T07:00:03;3.80;;;0.30;;
19794;SDS011;10057;59.402;17.866;2022-09-09T07:02:31;0.80;;;0.30;;
19794;SDS011;10057;59.402;17.866;2022-09-09T07:04:58;1.63;;;0.37;;
19794;SDS011;10057;59.402;17.866;2022-09-09T07:07:24;3.77;;;0.30;;
19794;SDS011;10057;59.402;17.866;2022-09-09T07:09:51;1.90;;;0.40;;
19794;SDS011;10057;59.402;17.866;2022-09-09T07:12:18;2.70;;;0.20;;
19794;SDS011;10057;59.402;17.866;2022-09-09T07:14:45;3.27;;;0.33;;
19794;SDS011;10057;59.402;17.866;2022-09-09T07:17:11;3.40;;;0.40;;
19794;SDS011;10057;59.402;17.866;2022-09-09T07:19:38;1.17;;;0.40;;
19794;SDS011;10057;59.402;17.866;2022-09-09T07:22:04;0.83;;;0.20;;
19794;SDS011;10057;59.402;17.866;2022-09-09T07:24:32;3.50;;;0.30;;
19794;SDS011;10057;59.402;17.866;2022-09-09T07:26:59;2.83;;;0.30;;
19794;SDS011;10057;59.402;17.866;2022-09-09T07:29:25;0.97;;;0.30;;
19794;SDS011;10057;59.402;17.866;2022-09-09T07:31:52;4.07;;;0.33;;
19794;SDS011;10057;59.402;17.866;2022-09-09T07:34:19;0.40;;;0.30;;
19794;SDS011;10057;59.402;17.866;2022-09-09T07:36:45;4.07;;;0.30;;
19794;SDS011;10057;59.402;17.866;2022-09-09T07:39:13;3.03;;;0.30;;
19794;SDS011;10057;59.402;17.866;2022-09-09T07:41:41;0.67;;;0.33;;
19794;SDS011;10057;59.402;17.866;2022-09-09T07:44:11;1.97;;;0.40;;
19794;SDS011;10057;59.402;17.866;2022-09-09T07:46:39;0.80;;;0.37;;
19794;SDS011;10057;59.402;17.866;2022-09-09T07:49:07;3.43;;;0.40;;
19794;SDS011;10057;59.402;17.866;2022-09-09T07:51:36;1.17;;;0.20;;
19794;SDS011;10057;59.402;17.866;2022-09-09T07:54:08;5.23;;;0.40;;
19794;SDS011;10057;59.402;17.866;2022-09-09T07:56:37;4.47;;;0.60;;
19794;SDS011;10057;59.402;17.866;2022-09-09T07:59:05;3.73;;;0.30;;
19794;SDS011;10057;59.402;17.866;2022-09-09T08:01:34;1.17;;;0.30;;
19794;SDS011;10057;59.402;17.866;2022-09-09T08:04:09;1.90;;;0.43;;
19794;SDS011;10057;59.402;17.866;2022-09-09T08:06:54;0.80;;;0.37;;
19794;SDS011;10057;59.402;17.866;2022-09-09T08:09:24;0.80;;;0.30;;
19794;SDS011;10057;59.402;17.866;2022-09-09T08:11:55;0.50;;;0.30;;
19794;SDS011;10057;59.402;17.866;2022-09-09T08:14:23;2.90;;;0.60;;
19794;SDS011;10057;59.402;17.866;2022-09-09T08:16:50;5.00;;;0.43;;
19794;SDS011;10057;59.402;17.866;2022-09-09T08:19:20;1.93;;;0.33;;
19794;SDS011;10057;59.402;17.866;2022-09-09T08:21:46;4.33;;;0.63;;
19794;SDS011;10057;59.402;17.866;2022-09-09T08:24:15;0.90;;;0.37;;
19794;SDS011;10057;59.402;17.866;2022-09-09T08:26:43;1.97;;;0.50;;
19794;SDS011;10057;59.402;17.866;2022-09-09T08:29:14;4.93;;;0.40;;
19794;SDS011;10057;59.402;17.866;2022-09-09T08:31:50;0.37;;;0.23;;
19794;SDS011;10057;59.402;17.866;2022-09-09T08:34:24;1.80;;;0.40;;
19794;SDS011;10057;59.402;17.866;2022-09-09T08:36:53;1.17;;;0.50;;
19794;SDS011;10057;59.402;17.866;2022-09-09T08:39:21;0.60;;;0.40;;
19794;SDS011;10057;59.402;17.866;2022-09-09T08:55:45;0.80;;;0.37;;
19794;SDS011;10057;59.402;17.866;2022-09-09T09:00:42;0.90;;;0.30;;
19794;SDS011;10057;59.402;17.866;2022-09-09T09:09:01;0.27;;;0.20;;
19794;SDS011;10057;59.402;17.866;2022-09-09T09:11:40;3.60;;;0.33;;
19794;SDS011;10057;59.402;17.866;2022-09-09T09:14:20;0.83;;;0.40;;
19794;SDS011;10057;59.402;17.866;2022-09-09T09:19:27;2.87;;;0.30;;
19794;SDS011;10057;59.402;17.866;2022-09-09T09:22:04;2.00;;;0.50;;
19794;SDS011;10057;59.402;17.866;2022-09-09T09:27:33;3.53;;;0.40;;
19794;SDS011;10057;59.402;17.866;2022-09-09T09:30:06;1.43;;;0.40;;
19794;SDS011;10057;59.402;17.866;2022-09-09T09:33:00;0.50;;;0.30;;
19794;SDS011;10057;59.402;17.866;2022-09-09T09:35:32;4.53;;;0.50;;
19794;SDS011;10057;59.402;17.866;2022-09-09T09:38:21;1.77;;;0.30;;
19794;SDS011;10057;59.402;17.866;2022-09-09T09:41:10;1.13;;;0.30;;
19794;SDS011;10057;59.402;17.866;2022-09-09T09:43:37;3.13;;;0.63;;
19794;SDS011;10057;59.402;17.866;2022-09-09T09:46:22;1.57;;;0.40;;
19794;SDS011;10057;59.402;17.866;2022-09-09T09:49:02;2.73;;;0.40;;
19794;SDS011;10057;59.402;17.866;2022-09-09T09:51:32;3.40;;;0.40;;
19794;SDS011;10057;59.402;17.866;2022-09-09T09:54:05;1.60;;;0.77;;
19794;SDS011;10057;59.402;17.866;2022-09-09T09:56:39;2.20;;;0.40;;
19794;SDS011;10057;59.402;17.866;2022-09-09T09:59:19;1.80;;;0.43;;
19794;SDS011;10057;59.402;17.866;2022-09-09T10:04:42;1.43;;;0.50;;
19794;SDS011;10057;59.402;17.866;2022-09-09T10:07:17;1.83;;;0.43;;
19794;SDS011;10057;59.402;17.866;2022-09-09T10:09:51;1.03;;;0.50;;
19794;SDS011;10057;59.402;17.866;2022-09-09T10:12:26;1.90;;;0.40;;
19794;SDS011;10057;59.402;17.866;2022-09-09T10:18:12;4.30;;;0.50;;
19794;SDS011;10057;59.402;17.866;2022-09-09T10:21:03;1.60;;;0.37;;
19794;SDS011;10057;59.402;17.866;2022-09-09T10:35:30;1.80;;;0.40;;
19794;SDS011;10057;59.402;17.866;2022-09-09T10:40:48;1.07;;;0.40;;
19794;SDS011;10057;59.402;17.866;2022-09-09T10:52:09;1.57;;;0.50;;
19794;SDS011;10057;59.402;17.866;2022-09-09T10:55:01;2.50;;;0.40;;
19794;SDS011;10057;59.402;17.866;2022-09-09T10:57:38;1.07;;;0.37;;
19794;SDS011;10057;59.402;17.866;2022-09-09T11:02:44;2.30;;;0.40;;
19794;SDS011;10057;59.402;17.866;2022-09-09T11:05:21;2.33;;;0.40;;
19794;SDS011;10057;59.402;17.866;2022-09-09T11:10:42;0.97;;;0.40;;
19794;SDS011;10057;59.402;17.866;2022-09-09T11:15:57;0.70;;;0.40;;
19794;SDS011;10057;59.402;17.866;2022-09-09T11:18:30;4.63;;;0.93;;
19794;SDS011;10057;59.402;17.866;2022-09-09T11:21:02;0.53;;;0.40;;
19794;SDS011;10057;59.402;17.866;2022-09-09T11:23:39;1.70;;;0.47;;
19794;SDS011;10057;59.402;17.866;2022-09-09T11:26:12;1.13;;;0.43;;
19794;SDS011;10057;59.402;17.866;2022-09-09T11:34:39;0.57;;;0.30;;
19794;SDS011;10057;59.402;17.866;2022-09-09T11:42:24;1.27;;;0.50;;
19794;SDS011;10057;59.402;17.866;2022-09-09T11:44:51;1.17;;;0.33;;
19794;SDS011;10057;59.402;17.866;2022-09-09T11:47:28;0.60;;;0.30;;
19794;SDS011;10057;59.402;17.866;2022-09-09T11:50:07;1.00;;;0.33;;
19794;SDS011;10057;59.402;17.866;2022-09-09T11:52:40;2.60;;;0.50;;
19794;SDS011;10057;59.402;17.866;2022-09-09T11:57:59;2.37;;;0.40;;
19794;SDS011;10057;59.402;17.866;2022-09-09T12:08:48;1.00;;;0.47;;
19794;SDS011;10057;59.402;17.866;2022-09-09T12:11:25;2.60;;;0.60;;
19794;SDS011;10057;59.402;17.866;2022-09-09T12:13:54;1.43;;;0.50;;
19794;SDS011;10057;59.402;17.866;2022-09-09T12:16:30;0.70;;;0.50;;
19794;SDS011;10057;59.402;17.866;2022-09-09T12:19:12;0.50;;;0.50;;
19794;SDS011;10057;59.402;17.866;2022-09-09T12:24:28;2.80;;;0.63;;
19794;SDS011;10057;59.402;17.866;2022-09-09T12:27:20;1.50;;;0.77;;
19794;SDS011;10057;59.402;17.866;2022-09-09T12:30:01;0.97;;;0.50;;
19794;SDS011;10057;59.402;17.866;2022-09-09T12:32:35;3.80;;;0.60;;
19794;SDS011;10057;59.402;17.866;2022-09-09T12:37:54;0.87;;;0.60;;
19794;SDS011;10057;59.402;17.866;2022-09-09T12:40:25;1.27;;;0.50;;
19794;SDS011;10057;59.402;17.866;2022-09-09T12:42:57;1.03;;;0.50;;
19794;SDS011;10057;59.402;17.866;2022-09-09T12:45:31;3.13;;;0.60;;
19794;SDS011;10057;59.402;17.866;2022-09-09T12:50:34;1.10;;;0.60;;
19794;SDS011;10057;59.402;17.866;2022-09-09T12:53:10;2.33;;;0.80;;
19794;SDS011;10057;59.402;17.866;2022-09-09T12:55:52;2.90;;;0.60;;
19794;SDS011;10057;59.402;17.866;2022-09-09T12:58:25;1.40;;;0.70;;
19794;SDS011;10057;59.402;17.866;2022-09-09T13:00:55;1.23;;;0.70;;
19794;SDS011;10057;59.402;17.866;2022-09-09T13:03:23;2.60;;;0.73;;
19794;SDS011;10057;59.402;17.866;2022-09-09T13:05:53;0.53;;;0.40;;
19794;SDS011;10057;59.402;17.866;2022-09-09T13:08:26;1.67;;;0.50;;
19794;SDS011;10057;59.402;17.866;2022-09-09T13:10:54;1.27;;;0.50;;
19794;SDS011;10057;59.402;17.866;2022-09-09T13:13:28;1.67;;;0.60;;
19794;SDS011;10057;59.402;17.866;2022-09-09T13:16:02;1.07;;;0.70;;
19794;SDS011;10057;59.402;17.866;2022-09-09T13:18:33;3.83;;;0.70;;
19794;SDS011;10057;59.402;17.866;2022-09-09T13:21:02;1.20;;;0.80;;
19794;SDS011;10057;59.402;17.866;2022-09-09T13:23:30;0.93;;;0.60;;
19794;SDS011;10057;59.402;17.866;2022-09-09T13:25:59;0.97;;;0.63;;
19794;SDS011;10057;59.402;17.866;2022-09-09T13:28:28;1.63;;;0.90;;
19794;SDS011;10057;59.402;17.866;2022-09-09T13:31:00;2.07;;;0.90;;
19794;SDS011;10057;59.402;17.866;2022-09-09T13:33:34;1.97;;;0.90;;
19794;SDS011;10057;59.402;17.866;2022-09-09T13:36:09;2.63;;;1.30;;
19794;SDS011;10057;59.402;17.866;2022-09-09T13:38:40;3.67;;;0.80;;
19794;SDS011;10057;59.402;17.866;2022-09-09T13:41:19;2.20;;;0.77;;
19794;SDS011;10057;59.402;17.866;2022-09-09T13:43:50;2.17;;;0.67;;
19794;SDS011;10057;59.402;17.866;2022-09-09T13:51:36;1.53;;;0.67;;
19794;SDS011;10057;59.402;17.866;2022-09-09T13:54:09;1.00;;;0.60;;
19794;SDS011;10057;59.402;17.866;2022-09-09T13:56:37;1.40;;;0.70;;
19794;SDS011;10057;59.402;17.866;2022-09-09T13:59:06;1.10;;;0.63;;
19794;SDS011;10057;59.402;17.866;2022-09-09T14:01:49;1.33;;;0.50;;
19794;SDS011;10057;59.402;17.866;2022-09-09T14:04:16;1.70;;;0.70;;
19794;SDS011;10057;59.402;17.866;2022-09-09T14:06:43;2.87;;;0.60;;
19794;SDS011;10057;59.402;17.866;2022-09-09T14:09:11;1.40;;;0.70;;
19794;SDS011;10057;59.402;17.866;2022-09-09T14:11:40;1.90;;;0.63;;
19794;SDS011;10057;59.402;17.866;2022-09-09T14:14:07;1.57;;;0.80;;
19794;SDS011;10057;59.402;17.866;2022-09-09T14:16:34;1.30;;;0.70;;
19794;SDS011;10057;59.402;17.866;2022-09-09T14:19:00;1.20;;;0.70;;
19794;SDS011;10057;59.402;17.866;2022-09-09T14:21:27;1.33;;;0.80;;
19794;SDS011;10057;59.402;17.866;2022-09-09T14:23:54;1.47;;;0.57;;
19794;SDS011;10057;59.402;17.866;2022-09-09T14:26:21;1.20;;;0.60;;
19794;SDS011;10057;59.402;17.866;2022-09-09T14:28:48;1.17;;;0.80;;
19794;SDS011;10057;59.402;17.866;2022-09-09T14:31:21;1.30;;;0.70;;
19794;SDS011;10057;59.402;17.866;2022-09-09T14:33:51;1.90;;;0.70;;
19794;SDS011;10057;59.402;17.866;2022-09-09T14:36:18;1.63;;;0.80;;
19794;SDS011;10057;59.402;17.866;2022-09-09T14:38:45;1.60;;;0.70;;
19794;SDS011;10057;59.402;17.866;2022-09-09T14:41:13;1.83;;;0.60;;
19794;SDS011;10057;59.402;17.866;2022-09-09T14:43:44;4.50;;;0.67;;
19794;SDS011;10057;59.402;17.866;2022-09-09T14:46:12;1.80;;;0.87;;
19794;SDS011;10057;59.402;17.866;2022-09-09T14:48:41;1.97;;;0.83;;
19794;SDS011;10057;59.402;17.866;2022-09-09T14:51:12;1.23;;;0.80;;
19794;SDS011;10057;59.402;17.866;2022-09-09T14:53:41;3.47;;;0.97;;
19794;SDS011;10057;59.402;17.866;2022-09-09T14:56:16;2.80;;;0.63;;
19794;SDS011;10057;59.402;17.866;2022-09-09T14:58:44;1.10;;;0.80;;
19794;SDS011;10057;59.402;17.866;2022-09-09T15:01:12;2.70;;;0.93;;
19794;SDS011;10057;59.402;17.866;2022-09-09T15:03:41;2.77;;;0.70;;
19794;SDS011;10057;59.402;17.866;2022-09-09T15:06:13;0.90;;;0.70;;
19794;SDS011;10057;59.402;17.866;2022-09-09T15:08:41;1.63;;;0.70;;
19794;SDS011;10057;59.402;17.866;2022-09-09T15:11:11;1.93;;;0.60;;
19794;SDS011;10057;59.402;17.866;2022-09-09T15:13:39;1.50;;;0.63;;
19794;SDS011;10057;59.402;17.866;2022-09-09T15:16:08;2.70;;;0.67;;
19794;SDS011;10057;59.402;17.866;2022-09-09T15:18:36;1.00;;;0.67;;
19794;SDS011;10057;59.402;17.866;2022-09-09T15:21:09;0.80;;;0.60;;
19794;SDS011;10057;59.402;17.866;2022-09-09T15:23:36;0.87;;;0.60;;
19794;SDS011;10057;59.402;17.866;2022-09-09T15:26:04;1.47;;;0.73;;
19794;SDS011;10057;59.402;17.866;2022-09-09T15:28:32;1.13;;;0.60;;
19794;SDS011;10057;59.402;17.866;2022-09-09T15:31:07;2.63;;;0.90;;
19794;SDS011;10057;59.402;17.866;2022-09-09T15:33:37;1.70;;;0.60;;
19794;SDS011;10057;59.402;17.866;2022-09-09T15:36:14;1.83;;;0.70;;
19794;SDS011;10057;59.402;17.866;2022-09-09T15:38:43;1.33;;;0.60;;
19794;SDS011;10057;59.402;17.866;2022-09-09T15:41:10;1.73;;;0.70;;
19794;SDS011;10057;59.402;17.866;2022-09-09T15:43:38;1.07;;;0.63;;
19794;SDS011;10057;59.402;17.866;2022-09-09T15:48:47;1.97;;;1.00;;
19794;SDS011;10057;59.402;17.866;2022-09-09T15:51:19;1.97;;;0.60;;
19794;SDS011;10057;59.402;17.866;2022-09-09T15:54:06;1.53;;;0.80;;
19794;SDS011;10057;59.402;17.866;2022-09-09T15:56:33;2.23;;;0.63;;
19794;SDS011;10057;59.402;17.866;2022-09-09T15:59:01;3.50;;;0.70;;
19794;SDS011;10057;59.402;17.866;2022-09-09T16:01:31;1.50;;;0.83;;
19794;SDS011;10057;59.402;17.866;2022-09-09T16:03:59;1.40;;;0.70;;
19794;SDS011;10057;59.402;17.866;2022-09-09T16:06:27;1.30;;;0.63;;
19794;SDS011;10057;59.402;17.866;2022-09-09T16:08:55;1.80;;;0.70;;
19794;SDS011;10057;59.402;17.866;2022-09-09T16:11:26;2.70;;;0.83;;
19794;SDS011;10057;59.402;17.866;2022-09-09T16:13:55;1.73;;;0.70;;
19794;SDS011;10057;59.402;17.866;2022-09-09T16:16:23;2.60;;;0.83;;
19794;SDS011;10057;59.402;17.866;2022-09-09T16:19:01;5.87;;;0.83;;
19794;SDS011;10057;59.402;17.866;2022-09-09T16:21:34;1.17;;;0.70;;
19794;SDS011;10057;59.402;17.866;2022-09-09T16:24:12;1.60;;;0.90;;
19794;SDS011;10057;59.402;17.866;2022-09-09T16:26:42;0.77;;;0.50;;
19794;SDS011;10057;59.402;17.866;2022-09-09T16:29:12;3.80;;;1.37;;
19794;SDS011;10057;59.402;17.866;2022-09-09T16:31:40;1.83;;;0.90;;
19794;SDS011;10057;59.402;17.866;2022-09-09T16:34:07;4.03;;;0.90;;
19794;SDS011;10057;59.402;17.866;2022-09-09T16:36:35;1.97;;;0.80;;
19794;SDS011;10057;59.402;17.866;2022-09-09T16:39:04;1.57;;;0.77;;
19794;SDS011;10057;59.402;17.866;2022-09-09T16:41:33;3.13;;;0.87;;
19794;SDS011;10057;59.402;17.866;2022-09-09T16:44:00;1.57;;;0.60;;
19794;SDS011;10057;59.402;17.866;2022-09-09T16:46:33;2.53;;;0.90;;
19794;SDS011;10057;59.402;17.866;2022-09-09T16:49:03;2.30;;;0.70;;
19794;SDS011;10057;59.402;17.866;2022-09-09T16:51:36;2.53;;;0.90;;
19794;SDS011;10057;59.402;17.866;2022-09-09T16:54:04;3.80;;;0.90;;
19794;SDS011;10057;59.402;17.866;2022-09-09T16:56:33;1.37;;;0.60;;
19794;SDS011;10057;59.402;17.866;2022-09-09T16:59:11;3.63;;;0.80;;
19794;SDS011;10057;59.402;17.866;2022-09-09T17:01:40;2.77;;;0.70;;
19794;SDS011;10057;59.402;17.866;2022-09-09T17:04:13;1.67;;;0.80;;
19794;SDS011;10057;59.402;17.866;2022-09-09T17:06:45;1.17;;;0.60;;
19794;SDS011;10057;59.402;17.866;2022-09-09T17:09:12;2.27;;;0.80;;
19794;SDS011;10057;59.402;17.866;2022-09-09T17:11:39;1.73;;;0.90;;
19794;SDS011;10057;59.402;17.866;2022-09-09T17:14:08;2.03;;;0.90;;
19794;SDS011;10057;59.402;17.866;2022-09-09T17:16:37;3.70;;;0.90;;
19794;SDS011;10057;59.402;17.866;2022-09-09T17:19:05;2.57;;;1.10;;
19794;SDS011;10057;59.402;17.866;2022-09-09T17:21:35;3.70;;;0.90;;
19794;SDS011;10057;59.402;17.866;2022-09-09T17:24:20;3.30;;;0.90;;
19794;SDS011;10057;59.402;17.866;2022-09-09T17:26:47;3.60;;;0.80;;
19794;SDS011;10057;59.402;17.866;2022-09-09T17:29:13;3.53;;;1.10;;
19794;SDS011;10057;59.402;17.866;2022-09-09T17:31:40;2.50;;;1.10;;
19794;SDS011;10057;59.402;17.866;2022-09-09T17:34:07;3.20;;;1.70;;
19794;SDS011;10057;59.402;17.866;2022-09-09T17:36:35;5.37;;;1.60;;